Time;durP1;ratioP1;P1;durP2;ratioP2;P2;SDS_P1;SDS_P2;PMS_P1;PMS_P2;Temp;Humidity;BMP_temperature;BMP_pressure;BME280_temperature;BME280_humidity;BME280_pressure;Samples;Min_cycle;Max_cycle;Signal;HPM_P1;HPM_P2
2021/11/17 02:26:57;;;;;;;;;;;21.30;44.40;;;;;;3161124;28;19920;-51
2021/11/17 02:28:42;;;;;;;;;;;21.30;44.40;;;;;;3160642;28;19950;-56
2021/11/17 02:30:23;;;;;;;;;;;21.30;44.40;;;;;;3160207;28;19978;-48
2021/11/17 02:32:02;;;;;;;;;;;21.30;44.30;;;;;;3161299;28;19973;-51
2021/11/17 02:33:51;;;;;;;;;;;21.30;44.20;;;;;;3160765;28;20338;-49
2021/11/17 02:35:38;;;;;;;;;;;21.30;44.20;;;;;;3160601;28;19928;-53
2021/11/17 02:37:25;;;;;;;;;;;21.30;44.10;;;;;;3161062;28;19924;-51
2021/11/17 02:39:05;;;;;;;;;;;21.30;44.20;;;;;;3160554;28;19924;-52
2021/11/17 02:40:47;;;;;;;;;;;21.30;44.20;;;;;;3161167;28;20072;-49
2021/11/17 02:42:49;;;;;;;;;;;21.30;44.10;;;;;;3161092;28;19924;-49
2021/11/17 02:44:27;;;;;;;;;;;21.30;44.10;;;;;;3121356;28;19925;-49
2021/11/17 02:46:04;;;;;;;;;;;21.30;43.90;;;;;;3123322;28;19975;-50
2021/11/17 02:47:46;;;;;;;;;;;21.30;43.90;;;;;;3160825;28;19945;-57
2021/11/17 02:49:24;;;;;;;;;;;21.30;43.90;;;;;;3160313;28;19924;-53
2021/11/17 02:51:21;;;;;;;;;;;21.30;43.80;;;;;;3161138;28;19969;-52
2021/11/17 02:53:07;;;;;;;;;;;21.30;43.90;;;;;;3161024;28;19924;-49
2021/11/17 02:54:54;;;;;;;;;;;21.30;43.90;;;;;;3158041;28;19924;-49
2021/11/17 02:56:34;;;;;;;;;;;21.30;44.00;;;;;;3158189;28;19928;-49
2021/11/17 02:58:21;;;;;;;;;;;21.30;43.90;;;;;;3159973;28;20430;-54
2021/11/17 02:59:59;;;;;;;;;;;21.30;43.90;;;;;;3160676;28;19924;-52
2021/11/17 03:01:37;;;;;;;;;;;21.30;43.90;;;;;;3159867;28;19924;-55
2021/11/17 03:03:17;;;;;;;;;;;21.30;43.90;;;;;;3160181;28;19928;-56
2021/11/17 03:04:58;;;;;;;;;;;21.30;43.80;;;;;;3160590;28;19931;-56
2021/11/17 03:06:36;;;;;;;;;;;21.30;43.90;;;;;;3160780;28;19924;-52
2021/11/17 03:09:51;;;;;;;;;;;21.30;43.80;;;;;;3149669;28;19984;-60
2021/11/17 03:11:37;;;;;;;;;;;21.30;43.70;;;;;;3159529;28;19924;-59
2021/11/17 03:13:16;;;;;;;;;;;21.30;43.70;;;;;;3139034;28;19953;-59
2021/11/17 03:15:15;;;;;;;;;;;21.30;43.90;;;;;;3158542;28;20438;-60
2021/11/17 03:16:57;;;;;;;;;;;21.30;43.90;;;;;;3109149;28;19971;-58
2021/11/17 03:18:36;;;;;;;;;;;21.30;43.80;;;;;;3140020;28;19925;-60
2021/11/17 03:20:15;;;;;;;;;;;21.40;43.80;;;;;;3146312;28;19931;-60
2021/11/17 03:21:53;;;;;;;;;;;21.40;43.70;;;;;;3146291;28;19925;-58
2021/11/17 03:23:31;;;;;;;;;;;21.30;43.70;;;;;;3146874;28;20295;-58
2021/11/17 03:25:10;;;;;;;;;;;21.40;43.70;;;;;;3147628;28;19924;-61
2021/11/17 03:26:48;;;;;;;;;;;21.40;43.70;;;;;;3146111;28;19924;-61
2021/11/17 03:28:35;;;;;;;;;;;21.40;44.30;;;;;;3145081;28;20089;-59
2021/11/17 03:30:23;;;;;;;;;;;21.30;43.70;;;;;;3145579;28;19925;-60
2021/11/17 03:32:02;;;;;;;;;;;21.40;43.70;;;;;;3146225;28;19925;-58
2021/11/17 03:33:49;;;;;;;;;;;21.40;43.80;;;;;;3146617;28;20362;-57
2021/11/17 03:35:27;;;;;;;;;;;21.30;43.70;;;;;;3140304;28;19932;-58
2021/11/17 03:37:11;;;;;;;;;;;21.30;43.70;;;;;;3147493;28;20342;-61
2021/11/17 03:38:53;;;;;;;;;;;21.30;43.70;;;;;;3146718;28;19947;-60
2021/11/17 03:40:37;;;;;;;;;;;21.40;43.70;;;;;;3143326;28;19925;-59
2021/11/17 03:42:22;;;;;;;;;;;21.30;43.70;;;;;;3146131;28;19990;-61
2021/11/17 03:44:03;;;;;;;;;;;21.30;43.80;;;;;;3143727;28;19929;-58
2021/11/17 03:45:58;;;;;;;;;;;21.30;43.70;;;;;;3146463;28;19924;-59
2021/11/17 03:47:42;;;;;;;;;;;21.30;43.70;;;;;;3126901;28;19928;-57
2021/11/17 03:49:19;;;;;;;;;;;21.30;43.70;;;;;;3147155;28;19924;-60
2021/11/17 03:50:57;;;;;;;;;;;21.30;43.80;;;;;;3146519;28;19921;-60
2021/11/17 03:52:35;;;;;;;;;;;21.30;43.80;;;;;;3141958;28;20368;-59
2021/11/17 03:54:26;;;;;;;;;;;21.30;43.70;;;;;;3146433;28;20667;-59
2021/11/17 03:56:07;;;;;;;;;;;21.30;43.70;;;;;;3147082;28;19925;-60
2021/11/17 03:57:45;;;;;;;;;;;21.30;43.60;;;;;;3147384;28;20289;-59
2021/11/17 03:59:27;;;;;;;;;;;21.30;43.50;;;;;;3145382;28;19925;-59
2021/11/17 04:01:08;;;;;;;;;;;21.30;43.50;;;;;;3142417;28;19928;-59
2021/11/17 04:02:46;;;;;;;;;;;21.30;43.50;;;;;;3147018;28;20369;-61
2021/11/17 04:04:27;;;;;;;;;;;21.30;43.60;;;;;;3146692;28;19924;-60
2021/11/17 04:06:05;;;;;;;;;;;21.30;43.50;;;;;;3147199;28;20338;-59
2021/11/17 04:07:44;;;;;;;;;;;21.40;43.50;;;;;;3146605;28;19970;-60
2021/11/17 04:09:25;;;;;;;;;;;21.30;43.50;;;;;;3137355;28;20438;-58
2021/11/17 04:11:03;;;;;;;;;;;21.30;43.50;;;;;;3145924;28;20019;-60
2021/11/17 04:12:41;;;;;;;;;;;21.40;43.50;;;;;;3147137;28;19936;-59
2021/11/17 04:14:19;;;;;;;;;;;21.40;43.50;;;;;;3145540;28;19974;-60
2021/11/17 04:15:58;;;;;;;;;;;21.30;43.50;;;;;;3142124;28;19924;-58
2021/11/17 04:17:36;;;;;;;;;;;21.40;43.40;;;;;;3145957;28;20376;-59
2021/11/17 04:19:13;;;;;;;;;;;21.30;43.50;;;;;;3146159;28;19924;-59
2021/11/17 04:20:52;;;;;;;;;;;21.30;43.50;;;;;;3146167;28;20760;-61
2021/11/17 04:22:34;;;;;;;;;;;21.40;43.50;;;;;;3146297;28;19924;-60
2021/11/17 04:24:12;;;;;;;;;;;21.30;43.40;;;;;;3143773;28;19936;-60
2021/11/17 04:26:02;;;;;;;;;;;21.40;43.50;;;;;;3146073;28;20617;-60
2021/11/17 04:27:40;;;;;;;;;;;21.40;43.50;;;;;;3139681;28;19963;-60
2021/11/17 04:29:26;;;;;;;;;;;21.30;43.60;;;;;;3145022;28;19994;-60
2021/11/17 04:31:07;;;;;;;;;;;21.30;43.50;;;;;;3144151;28;20019;-58
2021/11/17 04:32:52;;;;;;;;;;;21.30;43.60;;;;;;3146881;28;19925;-57
2021/11/17 04:34:41;;;;;;;;;;;21.30;43.60;;;;;;3138767;28;19951;-56
2021/11/17 04:36:31;;;;;;;;;;;21.40;43.60;;;;;;3146165;28;20441;-60
2021/11/17 04:38:12;;;;;;;;;;;21.40;43.50;;;;;;3145529;28;19924;-57
2021/11/17 04:39:58;;;;;;;;;;;21.40;44.30;;;;;;3141477;28;19931;-60
2021/11/17 04:41:45;;;;;;;;;;;21.40;43.60;;;;;;3146169;28;19925;-58
2021/11/17 04:43:28;;;;;;;;;;;21.40;43.60;;;;;;3144363;28;19921;-61
2021/11/17 04:45:07;;;;;;;;;;;21.40;43.60;;;;;;3146221;28;19947;-58
2021/11/17 04:46:47;;;;;;;;;;;21.40;43.70;;;;;;3145616;28;19924;-60
2021/11/17 04:48:31;;;;;;;;;;;21.40;43.50;;;;;;3145565;28;19990;-60
2021/11/17 04:50:16;;;;;;;;;;;21.40;43.50;;;;;;3145850;28;19925;-60
2021/11/17 04:51:54;;;;;;;;;;;21.40;44.10;;;;;;3146355;28;19931;-58
2021/11/17 04:53:32;;;;;;;;;;;21.50;43.50;;;;;;3141273;28;20342;-59
2021/11/17 04:55:17;;;;;;;;;;;21.60;43.30;;;;;;3139970;28;20389;-60
2021/11/17 04:56:58;;;;;;;;;;;21.60;43.20;;;;;;3147240;28;19924;-59
2021/11/17 04:58:47;;;;;;;;;;;21.70;43.10;;;;;;3143029;28;19931;-61
2021/11/17 05:00:37;;;;;;;;;;;21.80;42.90;;;;;;3144170;28;19993;-59
2021/11/17 05:02:27;;;;;;;;;;;21.90;42.90;;;;;;3145501;28;19928;-56
2021/11/17 05:04:07;;;;;;;;;;;21.90;42.70;;;;;;3142457;28;19947;-58
2021/11/17 05:05:45;;;;;;;;;;;22.00;42.60;;;;;;3146627;28;19978;-59
2021/11/17 05:07:22;;;;;;;;;;;22.00;42.40;;;;;;3144859;28;19925;-61
2021/11/17 05:08:57;;;;;;;;;;;22.10;42.40;;;;;;3144830;28;19924;-59
2021/11/17 05:10:35;;;;;;;;;;;22.20;42.20;;;;;;3146071;28;19994;-57
2021/11/17 05:12:15;;;;;;;;;;;22.20;42.10;;;;;;3146082;28;20001;-57
2021/11/17 05:13:50;;;;;;;;;;;22.30;42.00;;;;;;3140936;28;20011;-60
2021/11/17 05:15:29;;;;;;;;;;;22.40;41.90;;;;;;3137918;28;19928;-58
2021/11/17 05:17:07;;;;;;;;;;;22.40;41.70;;;;;;3146000;28;19970;-61
2021/11/17 05:18:51;;;;;;;;;;;22.50;41.60;;;;;;3144179;28;19924;-58
2021/11/17 05:20:29;;;;;;;;;;;22.60;41.50;;;;;;3134580;28;19924;-55
2021/11/17 05:22:11;;;;;;;;;;;22.70;41.40;;;;;;3145700;28;19977;-60
2021/11/17 05:23:52;;;;;;;;;;;22.70;41.20;;;;;;3144454;28;19935;-58
2021/11/17 05:25:30;;;;;;;;;;;22.70;41.20;;;;;;3139257;28;19924;-60
2021/11/17 05:27:09;;;;;;;;;;;22.80;41.10;;;;;;3144899;28;19924;-59
2021/11/17 05:28:49;;;;;;;;;;;22.80;40.90;;;;;;3145523;28;19924;-57
2021/11/17 05:30:33;;;;;;;;;;;22.80;40.90;;;;;;3145610;28;20299;-58
2021/11/17 05:32:11;;;;;;;;;;;22.90;40.90;;;;;;3145478;28;20050;-60
2021/11/17 05:33:59;;;;;;;;;;;22.80;40.90;;;;;;3145901;28;19973;-59
2021/11/17 05:35:38;;;;;;;;;;;22.80;40.80;;;;;;3140327;28;19925;-57
2021/11/17 05:37:15;;;;;;;;;;;22.80;40.80;;;;;;3145200;28;19928;-61
2021/11/17 05:38:52;;;;;;;;;;;22.80;40.80;;;;;;3143822;28;19929;-58
2021/11/17 05:40:31;;;;;;;;;;;22.90;40.90;;;;;;3146154;28;19950;-61
2021/11/17 05:42:11;;;;;;;;;;;22.80;41.00;;;;;;3144785;28;20277;-57
2021/11/17 05:43:48;;;;;;;;;;;22.70;41.20;;;;;;3140483;28;19932;-59
2021/11/17 05:45:30;;;;;;;;;;;22.70;41.30;;;;;;3145570;28;19946;-59
2021/11/17 05:47:09;;;;;;;;;;;22.60;41.30;;;;;;3144347;28;19992;-58
2021/11/17 05:48:47;;;;;;;;;;;22.60;41.30;;;;;;3144610;28;19994;-57
2021/11/17 05:50:41;;;;;;;;;;;22.50;41.50;;;;;;3145602;28;19924;-61
2021/11/17 05:52:25;;;;;;;;;;;22.50;41.70;;;;;;3143873;28;19924;-60
2021/11/17 05:54:04;;;;;;;;;;;22.50;41.90;;;;;;3144722;28;20324;-61
2021/11/17 05:55:47;;;;;;;;;;;22.40;42.00;;;;;;3146417;28;20572;-61
2021/11/17 05:57:25;;;;;;;;;;;22.40;42.20;;;;;;3143867;28;20444;-61
2021/11/17 05:59:03;;;;;;;;;;;22.30;42.40;;;;;;3144019;28;19978;-60
2021/11/17 06:00:51;;;;;;;;;;;22.30;42.90;;;;;;3141595;28;19943;-59
2021/11/17 06:02:29;;;;;;;;;;;22.20;44.00;;;;;;3142859;28;19938;-58
2021/11/17 06:04:02;;;;;;;;;;;22.10;44.70;;;;;;3140704;28;19929;-60
2021/11/17 06:05:33;;;;;;;;;;;22.10;45.80;;;;;;3144758;28;19978;-62
2021/11/17 06:07:05;;;;;;;;;;;22.00;46.30;;;;;;3146075;28;20483;-61
2021/11/17 06:08:36;;;;;;;;;;;22.00;47.00;;;;;;3145669;28;19924;-59
2021/11/17 06:10:09;;;;;;;;;;;22.10;47.60;;;;;;3144106;28;20025;-61
2021/11/17 06:11:42;;;;;;;;;;;22.10;47.70;;;;;;3145371;28;20349;-57
2021/11/17 06:13:13;;;;;;;;;;;22.10;47.60;;;;;;3143080;28;19925;-60
2021/11/17 06:14:46;;;;;;;;;;;22.10;47.80;;;;;;3146226;28;20396;-62
2021/11/17 06:16:17;;;;;;;;;;;22.10;47.80;;;;;;3145188;28;19925;-60
2021/11/17 06:17:49;;;;;;;;;;;22.20;47.90;;;;;;3146246;28;19924;-60
2021/11/17 06:19:22;;;;;;;;;;;22.20;48.00;;;;;;3144988;28;19925;-61
2021/11/17 06:20:53;;;;;;;;;;;22.20;48.10;;;;;;3146221;28;19925;-59
2021/11/17 06:22:25;;;;;;;;;;;22.20;48.20;;;;;;3146321;28;19990;-61
2021/11/17 06:23:57;;;;;;;;;;;22.10;48.40;;;;;;3145481;28;19924;-62
2021/11/17 06:25:30;;;;;;;;;;;22.10;48.50;;;;;;3146322;28;19954;-62
2021/11/17 06:27:03;;;;;;;;;;;22.20;48.60;;;;;;3146087;28;19924;-59
2021/11/17 06:28:35;;;;;;;;;;;22.10;48.60;;;;;;3145611;28;19928;-62
2021/11/17 06:30:07;;;;;;;;;;;22.10;48.90;;;;;;3145450;28;19928;-60
2021/11/17 06:31:39;;;;;;;;;;;22.20;49.10;;;;;;3146103;28;19924;-62
2021/11/17 06:33:10;;;;;;;;;;;22.20;49.20;;;;;;3145696;28;19924;-59
2021/11/17 06:34:42;;;;;;;;;;;22.20;49.40;;;;;;3145994;28;19982;-61
2021/11/17 06:36:14;;;;;;;;;;;22.30;49.60;;;;;;3146216;28;19924;-59
2021/11/17 06:37:46;;;;;;;;;;;22.30;49.90;;;;;;3145955;28;19947;-62
2021/11/17 06:39:17;;;;;;;;;;;22.30;50.30;;;;;;3145527;28;19936;-61
2021/11/17 06:40:50;;;;;;;;;;;22.30;50.50;;;;;;3145669;28;19936;-60
2021/11/17 06:42:22;;;;;;;;;;;22.30;50.80;;;;;;3146102;28;19924;-61
2021/11/17 06:43:54;;;;;;;;;;;22.40;51.00;;;;;;3145413;28;19947;-62
2021/11/17 06:45:26;;;;;;;;;;;22.30;51.00;;;;;;3145178;28;19924;-60
2021/11/17 06:46:57;;;;;;;;;;;22.30;50.80;;;;;;3145802;28;19925;-62
2021/11/17 06:48:29;;;;;;;;;;;22.30;50.90;;;;;;3143721;28;20353;-60
2021/11/17 06:50:01;;;;;;;;;;;22.30;50.80;;;;;;3143449;28;19970;-59
2021/11/17 06:51:32;;;;;;;;;;;22.30;51.00;;;;;;3144096;28;19928;-61
2021/11/17 06:53:04;;;;;;;;;;;22.30;50.60;;;;;;3144310;28;19982;-63
2021/11/17 06:54:36;;;;;;;;;;;22.20;50.10;;;;;;3143802;28;20782;-62
2021/11/17 06:56:09;;;;;;;;;;;22.20;49.90;;;;;;3144249;28;19933;-58
2021/11/17 06:57:41;;;;;;;;;;;22.20;49.90;;;;;;3143348;28;19925;-61
2021/11/17 06:59:12;;;;;;;;;;;22.20;49.80;;;;;;3143021;28;20037;-63
2021/11/17 07:00:44;;;;;;;;;;;22.00;49.40;;;;;;3142234;28;19974;-60
2021/11/17 07:02:16;;;;;;;;;;;22.00;49.10;;;;;;3140227;28;19928;-62
2021/11/17 07:03:47;;;;;;;;;;;21.90;48.90;;;;;;3134453;28;20288;-59
2021/11/17 07:05:19;;;;;;;;;;;21.80;48.70;;;;;;3144588;28;19924;-63
2021/11/17 07:06:51;;;;;;;;;;;21.70;48.40;;;;;;3146564;28;19928;-62
2021/11/17 07:08:23;;;;;;;;;;;21.80;48.20;;;;;;3146675;28;19928;-63
2021/11/17 07:09:55;;;;;;;;;;;21.70;48.10;;;;;;3146685;28;19931;-63
2021/11/17 07:11:28;;;;;;;;;;;21.70;48.10;;;;;;3147909;28;19928;-63
2021/11/17 07:12:59;;;;;;;;;;;21.70;47.80;;;;;;3147313;28;20285;-63
2021/11/17 07:14:31;;;;;;;;;;;21.70;48.20;;;;;;3145843;28;19924;-63
2021/11/17 07:16:03;;;;;;;;;;;21.70;47.10;;;;;;3145777;28;19974;-62
2021/11/17 07:17:34;;;;;;;;;;;21.60;46.90;;;;;;3147016;28;19943;-63
2021/11/17 07:19:06;;;;;;;;;;;21.70;46.40;;;;;;3145946;28;20398;-59
2021/11/17 07:20:38;;;;;;;;;;;21.60;46.00;;;;;;3142577;28;19928;-60
2021/11/17 07:22:09;;;;;;;;;;;21.60;45.80;;;;;;3147647;28;20406;-60
2021/11/17 07:23:41;;;;;;;;;;;21.60;45.60;;;;;;3146798;28;19932;-61
2021/11/17 07:25:13;;;;;;;;;;;21.60;44.80;;;;;;3147935;28;19994;-61
2021/11/17 07:26:46;;;;;;;;;;;21.70;44.30;;;;;;3147739;28;20015;-60
2021/11/17 07:28:18;;;;;;;;;;;21.80;43.90;;;;;;3147484;28;19997;-60
2021/11/17 07:29:50;;;;;;;;;;;21.80;43.80;;;;;;3147503;28;19924;-61
2021/11/17 07:31:21;;;;;;;;;;;21.80;43.50;;;;;;3146647;28;19947;-61
2021/11/17 07:32:53;;;;;;;;;;;21.80;43.40;;;;;;3147002;28;20529;-62
2021/11/17 07:34:24;;;;;;;;;;;21.90;43.60;;;;;;3146290;28;19981;-61
2021/11/17 07:35:56;;;;;;;;;;;22.00;44.40;;;;;;3146392;28;19924;-62
2021/11/17 07:37:27;;;;;;;;;;;22.10;45.80;;;;;;3146220;28;20652;-60
2021/11/17 07:38:59;;;;;;;;;;;22.20;46.00;;;;;;3143082;28;19925;-62
2021/11/17 07:40:31;;;;;;;;;;;22.30;46.20;;;;;;3146937;28;19932;-59
2021/11/17 07:42:04;;;;;;;;;;;22.30;46.40;;;;;;3145534;28;19928;-61
2021/11/17 07:43:35;;;;;;;;;;;22.10;46.30;;;;;;3145308;28;19928;-63
2021/11/17 07:45:07;;;;;;;;;;;22.10;46.30;;;;;;3146559;28;20629;-57
2021/11/17 07:46:39;;;;;;;;;;;22.00;46.20;;;;;;3146975;28;19978;-62
2021/11/17 07:48:11;;;;;;;;;;;22.10;46.00;;;;;;3146500;28;19925;-62
2021/11/17 07:49:42;;;;;;;;;;;22.10;45.80;;;;;;3140970;28;19946;-61
2021/11/17 07:51:15;;;;;;;;;;;22.00;45.70;;;;;;3145966;28;19950;-62
2021/11/17 07:52:47;;;;;;;;;;;22.10;45.60;;;;;;3145806;28;20427;-60
2021/11/17 07:54:19;;;;;;;;;;;22.00;45.50;;;;;;3146351;28;19924;-61
2021/11/17 07:55:51;;;;;;;;;;;22.00;45.30;;;;;;3145642;28;20373;-59
2021/11/17 07:57:24;;;;;;;;;;;21.90;45.20;;;;;;3139508;28;19932;-59
2021/11/17 07:58:56;;;;;;;;;;;21.90;44.60;;;;;;3145299;28;19924;-60
2021/11/17 08:00:28;;;;;;;;;;;21.90;44.60;;;;;;3144653;28;19924;-62
2021/11/17 08:02:00;;;;;;;;;;;22.00;44.60;;;;;;3145365;28;19925;-62
2021/11/17 08:03:31;;;;;;;;;;;22.00;44.60;;;;;;3145136;28;19925;-59
2021/11/17 08:05:03;;;;;;;;;;;22.00;44.30;;;;;;3146906;28;19920;-60
2021/11/17 08:06:34;;;;;;;;;;;21.90;44.20;;;;;;3146677;28;19924;-62
2021/11/17 08:08:06;;;;;;;;;;;21.80;44.20;;;;;;3145469;28;19928;-60
2021/11/17 08:09:38;;;;;;;;;;;21.80;44.00;;;;;;3145502;28;19974;-61
2021/11/17 08:11:10;;;;;;;;;;;21.80;43.70;;;;;;3145044;28;20404;-62
2021/11/17 08:12:42;;;;;;;;;;;21.70;43.80;;;;;;3146728;28;20425;-62
2021/11/17 08:14:14;;;;;;;;;;;21.80;43.50;;;;;;3145453;28;19925;-62
2021/11/17 08:15:46;;;;;;;;;;;21.80;43.20;;;;;;3145008;28;19994;-61
2021/11/17 08:17:19;;;;;;;;;;;21.90;43.00;;;;;;3145016;28;20015;-62
2021/11/17 08:18:50;;;;;;;;;;;22.00;42.80;;;;;;3145731;28;19924;-62
2021/11/17 08:20:22;;;;;;;;;;;22.00;42.80;;;;;;3146316;28;19924;-60
2021/11/17 08:21:54;;;;;;;;;;;22.00;42.70;;;;;;3146420;28;19978;-58
2021/11/17 08:23:25;;;;;;;;;;;21.90;42.50;;;;;;3146354;28;19925;-59
2021/11/17 08:24:57;;;;;;;;;;;21.90;42.60;;;;;;3145905;28;19932;-62
2021/11/17 08:26:28;;;;;;;;;;;21.80;42.70;;;;;;3146268;28;19924;-59
2021/11/17 08:28:01;;;;;;;;;;;21.80;42.30;;;;;;3145058;28;19978;-61
2021/11/17 08:29:33;;;;;;;;;;;21.70;42.30;;;;;;3144856;28;20376;-62
2021/11/17 08:31:05;;;;;;;;;;;21.70;41.90;;;;;;3142627;28;19960;-62
2021/11/17 08:32:36;;;;;;;;;;;21.70;41.60;;;;;;3146918;28;19931;-60
2021/11/17 08:34:09;;;;;;;;;;;21.80;41.50;;;;;;3144262;28;19933;-58
2021/11/17 08:35:41;;;;;;;;;;;21.80;41.20;;;;;;3145825;28;19925;-62
2021/11/17 08:37:12;;;;;;;;;;;21.70;41.20;;;;;;3145149;28;20381;-62
2021/11/17 08:38:44;;;;;;;;;;;21.70;41.10;;;;;;3146006;28;19925;-62
2021/11/17 08:40:16;;;;;;;;;;;21.70;41.00;;;;;;3145706;28;20423;-62
2021/11/17 08:41:47;;;;;;;;;;;21.80;40.80;;;;;;3145830;28;19997;-59
2021/11/17 08:43:20;;;;;;;;;;;21.80;40.90;;;;;;3145215;28;20530;-62
2021/11/17 08:44:52;;;;;;;;;;;21.80;40.80;;;;;;3134141;28;19929;-58
2021/11/17 08:46:24;;;;;;;;;;;21.80;40.80;;;;;;3133640;28;19948;-62
2021/11/17 08:47:55;;;;;;;;;;;21.80;41.20;;;;;;3145500;28;20334;-62
2021/11/17 08:49:27;;;;;;;;;;;21.80;40.70;;;;;;3146058;28;19932;-62
2021/11/17 08:51:00;;;;;;;;;;;21.70;40.90;;;;;;3144247;28;19929;-59
2021/11/17 08:52:32;;;;;;;;;;;21.70;40.70;;;;;;3145408;28;19986;-58
2021/11/17 08:54:03;;;;;;;;;;;21.70;40.60;;;;;;3141592;28;19975;-62
2021/11/17 08:55:35;;;;;;;;;;;21.70;40.40;;;;;;3135867;28;19947;-60
2021/11/17 08:57:07;;;;;;;;;;;21.80;40.40;;;;;;3145293;28;20040;-61
2021/11/17 08:58:40;;;;;;;;;;;21.80;40.10;;;;;;3145369;28;20380;-61
2021/11/17 09:00:12;;;;;;;;;;;21.90;40.00;;;;;;3144621;28;20038;-60
2021/11/17 09:01:43;;;;;;;;;;;21.80;40.20;;;;;;3145727;28;19925;-60
2021/11/17 09:03:15;;;;;;;;;;;21.80;40.30;;;;;;3137362;28;19924;-60
2021/11/17 09:04:47;;;;;;;;;;;21.80;40.50;;;;;;3144497;28;19932;-59
2021/11/17 09:06:18;;;;;;;;;;;21.70;40.20;;;;;;3145936;28;19970;-60
2021/11/17 09:07:50;;;;;;;;;;;21.80;39.90;;;;;;3145379;28;19932;-59
2021/11/17 09:09:22;;;;;;;;;;;21.80;40.20;;;;;;3144930;28;19925;-59
2021/11/17 09:10:54;;;;;;;;;;;21.70;40.20;;;;;;3144629;28;20440;-62
2021/11/17 09:12:25;;;;;;;;;;;21.70;40.10;;;;;;3146600;28;20325;-60
2021/11/17 09:13:58;;;;;;;;;;;21.70;40.50;;;;;;3144675;28;19935;-62
2021/11/17 09:15:30;;;;;;;;;;;21.60;40.20;;;;;;3143934;28;19928;-60
2021/11/17 09:17:02;;;;;;;;;;;21.70;40.00;;;;;;3145836;28;19971;-60
2021/11/17 09:18:34;;;;;;;;;;;21.80;39.80;;;;;;3146036;28;19994;-62
2021/11/17 09:20:06;;;;;;;;;;;21.90;39.70;;;;;;3144233;28;19925;-59
2021/11/17 09:21:38;;;;;;;;;;;21.90;39.80;;;;;;3145773;28;19978;-62
2021/11/17 09:23:10;;;;;;;;;;;22.00;39.80;;;;;;3144327;28;19962;-60
2021/11/17 09:24:42;;;;;;;;;;;22.00;39.70;;;;;;3146227;28;19932;-58
2021/11/17 09:26:14;;;;;;;;;;;22.00;39.80;;;;;;3145013;28;19924;-62
2021/11/17 09:27:46;;;;;;;;;;;22.00;39.80;;;;;;3144992;28;19925;-60
2021/11/17 09:29:19;;;;;;;;;;;22.00;39.80;;;;;;3145149;28;19933;-62
2021/11/17 09:30:51;;;;;;;;;;;21.90;40.00;;;;;;3144607;28;20347;-58
2021/11/17 09:32:23;;;;;;;;;;;21.90;39.90;;;;;;3144398;28;19924;-59
2021/11/17 09:33:54;;;;;;;;;;;21.80;40.00;;;;;;3143618;28;20384;-62
2021/11/17 09:35:28;;;;;;;;;;;21.80;40.10;;;;;;3145561;28;19929;-62
2021/11/17 09:37:03;;;;;;;;;;;21.80;40.10;;;;;;3145550;28;19924;-62
2021/11/17 09:38:34;;;;;;;;;;;21.80;40.00;;;;;;3144847;28;20373;-61
2021/11/17 09:40:07;;;;;;;;;;;21.90;40.70;;;;;;3145370;28;20617;-62
2021/11/17 09:41:39;;;;;;;;;;;21.90;40.00;;;;;;3146123;28;19935;-62
2021/11/17 09:43:11;;;;;;;;;;;21.80;40.30;;;;;;3144213;28;20357;-61
2021/11/17 09:44:44;;;;;;;;;;;21.70;40.30;;;;;;3141355;28;20424;-62
2021/11/17 09:46:19;;;;;;;;;;;21.60;40.20;;;;;;3144625;28;19928;-62
2021/11/17 09:47:51;;;;;;;;;;;21.70;40.10;;;;;;3146122;28;20018;-62
2021/11/17 09:49:23;;;;;;;;;;;21.70;40.20;;;;;;3144111;28;19936;-60
2021/11/17 09:50:57;;;;;;;;;;;21.70;40.00;;;;;;3144215;28;19925;-62
2021/11/17 09:52:29;;;;;;;;;;;21.70;40.10;;;;;;3144996;28;19932;-58
2021/11/17 09:54:03;;;;;;;;;;;21.80;39.90;;;;;;3144482;28;20405;-61
2021/11/17 09:55:35;;;;;;;;;;;21.80;40.00;;;;;;3145758;28;19970;-60
2021/11/17 09:57:07;;;;;;;;;;;21.80;40.10;;;;;;3145647;28;19925;-62
2021/11/17 09:58:40;;;;;;;;;;;21.70;40.00;;;;;;3144233;28;19924;-62
2021/11/17 10:00:14;;;;;;;;;;;21.80;39.90;;;;;;3143740;28;19969;-62
2021/11/17 10:01:46;;;;;;;;;;;21.80;39.90;;;;;;3145538;28;19924;-62
2021/11/17 10:03:19;;;;;;;;;;;21.70;40.00;;;;;;3137356;28;19974;-61
2021/11/17 10:04:52;;;;;;;;;;;21.70;40.20;;;;;;3143779;28;19985;-59
2021/11/17 10:06:40;;;;;;;;;;;21.70;39.90;;;;;;3145814;28;19928;-60
2021/11/17 10:08:33;;;;;;;;;;;21.70;39.80;;;;;;3143143;28;19924;-59
2021/11/17 10:10:42;;;;;;;;;;;21.70;40.00;;;;;;3140861;28;19931;-62
2021/11/17 10:12:49;;;;;;;;;;;21.70;40.20;;;;;;3145483;28;19929;-61
2021/11/17 10:14:17;;;;;;;;;;;21.60;40.20;;;;;;3144627;28;20030;-60
2021/11/17 10:15:51;;;;;;;;;;;21.70;40.00;;;;;;3143278;28;19954;-59
2021/11/17 10:17:29;;;;;;;;;;;21.80;39.90;;;;;;3144602;28;19978;-62
2021/11/17 10:19:14;;;;;;;;;;;21.90;40.10;;;;;;3144329;28;19947;-62
2021/11/17 10:20:58;;;;;;;;;;;22.00;40.10;;;;;;3144919;28;19977;-58
2021/11/17 10:22:29;;;;;;;;;;;22.00;40.20;;;;;;3145100;28;19924;-60
2021/11/17 10:24:03;;;;;;;;;;;22.00;40.30;;;;;;3144237;28;20490;-62
2021/11/17 10:25:40;;;;;;;;;;;22.10;40.40;;;;;;3145686;28;20319;-62
2021/11/17 10:27:11;;;;;;;;;;;22.10;40.50;;;;;;3145635;28;19929;-62
2021/11/17 10:28:44;;;;;;;;;;;22.10;40.60;;;;;;3143022;28;19924;-62
2021/11/17 10:30:20;;;;;;;;;;;22.10;40.80;;;;;;3143461;28;19925;-59
2021/11/17 10:31:54;;;;;;;;;;;22.10;40.90;;;;;;3144049;28;19970;-62
2021/11/17 10:33:26;;;;;;;;;;;22.10;41.00;;;;;;3143771;28;19950;-62
2021/11/17 10:34:59;;;;;;;;;;;22.10;41.00;;;;;;3141959;28;20362;-62
2021/11/17 10:36:31;;;;;;;;;;;22.10;41.10;;;;;;3138767;28;19924;-59
2021/11/17 10:38:04;;;;;;;;;;;22.10;41.40;;;;;;3134864;28;19936;-62
2021/11/17 10:39:42;;;;;;;;;;;22.10;41.70;;;;;;3144503;28;19929;-62
2021/11/17 10:41:18;;;;;;;;;;;22.00;41.90;;;;;;3145777;28;20312;-62
2021/11/17 10:42:49;;;;;;;;;;;22.00;42.10;;;;;;3143727;28;20258;-58
2021/11/17 10:44:33;;;;;;;;;;;22.00;42.20;;;;;;3143748;28;19960;-62
2021/11/17 10:46:07;;;;;;;;;;;22.00;42.20;;;;;;3147525;28;19925;-62
2021/11/17 10:47:44;;;;;;;;;;;22.00;42.40;;;;;;3147251;28;19944;-60
2021/11/17 10:49:17;;;;;;;;;;;22.00;42.60;;;;;;3147327;28;19928;-62
2021/11/17 10:50:49;;;;;;;;;;;22.00;42.80;;;;;;3141681;28;19936;-62
2021/11/17 10:52:28;;;;;;;;;;;22.00;42.80;;;;;;3148171;28;19947;-62
2021/11/17 10:54:00;;;;;;;;;;;21.90;43.00;;;;;;3147149;28;19931;-63
2021/11/17 10:55:33;;;;;;;;;;;21.80;43.20;;;;;;3146846;28;19924;-62
2021/11/17 10:57:05;;;;;;;;;;;21.80;43.40;;;;;;3146645;28;19928;-62
2021/11/17 10:58:39;;;;;;;;;;;21.70;43.40;;;;;;3147138;28;19928;-61
2021/11/17 11:00:11;;;;;;;;;;;21.70;43.50;;;;;;3145552;28;19924;-60
2021/11/17 11:01:44;;;;;;;;;;;21.70;43.50;;;;;;3146105;28;19925;-62
2021/11/17 11:03:18;;;;;;;;;;;21.80;43.60;;;;;;3136026;28;19925;-58
2021/11/17 11:04:50;;;;;;;;;;;21.70;43.70;;;;;;3135567;28;19951;-62
2021/11/17 11:06:26;;;;;;;;;;;21.60;43.80;;;;;;3134366;28;19939;-62
2021/11/17 11:08:01;;;;;;;;;;;21.60;43.90;;;;;;3144603;28;19968;-62
2021/11/17 11:09:34;;;;;;;;;;;21.60;44.00;;;;;;3146262;28;20321;-61
2021/11/17 11:11:06;;;;;;;;;;;21.60;44.10;;;;;;3146328;28;19974;-62
2021/11/17 11:12:38;;;;;;;;;;;21.60;44.30;;;;;;3146807;28;19928;-62
2021/11/17 11:14:10;;;;;;;;;;;21.60;44.40;;;;;;3146661;28;20715;-62
2021/11/17 11:15:43;;;;;;;;;;;21.60;44.40;;;;;;3145610;28;19932;-61
2021/11/17 11:17:24;;;;;;;;;;;21.60;44.50;;;;;;3144890;28;20038;-61
2021/11/17 11:19:13;;;;;;;;;;;21.60;44.40;;;;;;3138433;28;19931;-59
2021/11/17 11:20:46;;;;;;;;;;;21.70;44.30;;;;;;3142095;28;20356;-60
2021/11/17 11:22:18;;;;;;;;;;;21.80;44.30;;;;;;3147350;28;19955;-63
2021/11/17 11:24:12;;;;;;;;;;;21.80;44.30;;;;;;3143650;28;19928;-61
2021/11/17 11:25:48;;;;;;;;;;;21.80;44.30;;;;;;3146386;28;19929;-59
2021/11/17 11:27:25;;;;;;;;;;;21.90;44.20;;;;;;3143628;28;19932;-62
2021/11/17 11:29:15;;;;;;;;;;;21.90;44.20;;;;;;3145535;28;19978;-60
2021/11/17 11:30:47;;;;;;;;;;;22.00;44.10;;;;;;3140381;28;19931;-62
2021/11/17 11:32:38;;;;;;;;;;;22.00;44.10;;;;;;3146585;28;20430;-62
2021/11/17 11:34:28;;;;;;;;;;;22.00;44.20;;;;;;3146708;28;20289;-60
2021/11/17 11:36:18;;;;;;;;;;;22.00;44.20;;;;;;3145823;28;19943;-59
2021/11/17 11:38:01;;;;;;;;;;;22.00;44.20;;;;;;3145806;28;20293;-60
2021/11/17 11:39:46;;;;;;;;;;;22.00;44.80;;;;;;3144459;28;19998;-60
2021/11/17 11:41:18;;;;;;;;;;;22.00;44.20;;;;;;3145666;28;19978;-63
2021/11/17 11:43:11;;;;;;;;;;;22.00;44.20;;;;;;3146896;28;19924;-64
2021/11/17 11:44:42;;;;;;;;;;;22.10;44.20;;;;;;3142370;28;19924;-61
2021/11/17 11:46:31;;;;;;;;;;;22.00;44.00;;;;;;3146107;28;19925;-61
2021/11/17 11:48:03;;;;;;;;;;;22.00;43.90;;;;;;3144537;28;19971;-61
2021/11/17 11:49:35;;;;;;;;;;;22.00;44.00;;;;;;3145978;28;20331;-60